createdAt,value
2018-06-02T00:02:05.587Z,9.50
2018-06-02T00:04:32.071Z,10.03
2018-06-02T00:06:59.249Z,9.80
2018-06-02T00:09:25.732Z,9.90
2018-06-02T00:11:52.182Z,9.73
2018-06-02T00:14:19.551Z,9.60
2018-06-02T00:16:46.069Z,9.90
2018-06-02T00:19:13.301Z,10.73
2018-06-02T00:21:39.765Z,10.37
2018-06-02T00:24:07.010Z,9.00
2018-06-02T00:26:34.202Z,11.90
2018-06-02T00:29:00.674Z,9.33
2018-06-02T00:31:27.270Z,8.90
2018-06-02T00:33:53.710Z,9.03
2018-06-02T00:36:20.258Z,9.83
2018-06-02T00:38:46.687Z,9.00
2018-06-02T00:41:13.325Z,10.30
2018-06-02T00:43:39.770Z,9.40
2018-06-02T00:46:06.287Z,11.30
2018-06-02T00:48:32.745Z,9.37
2018-06-02T00:50:59.993Z,9.80
2018-06-02T00:53:26.600Z,9.80
2018-06-02T00:55:53.042Z,9.67
2018-06-02T00:58:19.551Z,12.20
2018-06-02T01:00:46.012Z,11.30
2018-06-02T01:03:12.532Z,12.23
2018-06-02T01:05:39.018Z,11.20
2018-06-02T01:08:05.526Z,10.00
2018-06-02T01:10:31.970Z,9.90
2018-06-02T01:12:58.549Z,10.47
2018-06-02T01:15:25.058Z,11.10
2018-06-02T01:17:51.584Z,11.40
2018-06-02T01:20:18.058Z,12.23
2018-06-02T01:22:44.542Z,11.80
2018-06-02T01:25:10.998Z,12.40
2018-06-02T01:27:38.226Z,10.33
2018-06-02T01:30:04.701Z,9.37
2018-06-02T01:32:31.931Z,9.20
2018-06-02T01:34:58.375Z,11.10
2018-06-02T01:37:24.923Z,11.00
2018-06-02T01:39:51.379Z,11.37
2018-06-02T01:42:17.843Z,12.20
2018-06-02T01:44:44.333Z,10.07
2018-06-02T01:47:10.759Z,8.80
2018-06-02T01:49:37.245Z,10.37
2018-06-02T01:52:03.871Z,8.63
2018-06-02T01:54:30.330Z,10.73
2018-06-02T01:56:56.814Z,9.27
2018-06-02T01:59:23.290Z,9.57
2018-06-02T02:01:49.810Z,11.90
2018-06-02T02:04:17.092Z,11.00
2018-06-02T02:06:43.532Z,10.63
2018-06-02T02:09:11.060Z,15.53
2018-06-02T02:11:37.606Z,12.30
2018-06-02T02:14:04.089Z,11.60
2018-06-02T02:16:30.525Z,12.80
2018-06-02T02:18:57.031Z,12.30
2018-06-02T02:21:24.272Z,14.50
2018-06-02T02:23:51.442Z,13.27
2018-06-02T02:26:18.681Z,13.60
2018-06-02T02:28:45.837Z,13.43
2018-06-02T02:31:13.090Z,10.63
2018-06-02T02:33:40.377Z,12.47
2018-06-02T02:36:06.871Z,13.90
2018-06-02T02:38:34.060Z,17.30
2018-06-02T02:41:00.647Z,13.50
2018-06-02T02:43:27.870Z,14.07
2018-06-02T02:45:54.331Z,13.67
2018-06-02T02:48:21.552Z,16.70
2018-06-02T02:50:48.088Z,14.27
2018-06-02T02:53:14.583Z,15.77
2018-06-02T02:55:41.162Z,16.50
2018-06-02T02:58:07.639Z,14.50
2018-06-02T03:00:34.872Z,15.50
2018-06-02T03:03:01.437Z,13.77
2018-06-02T03:05:27.899Z,16.50
2018-06-02T03:07:54.474Z,17.30
2018-06-02T03:10:20.933Z,15.70
2018-06-02T03:12:48.158Z,19.43
2018-06-02T03:15:14.699Z,21.97
2018-06-02T03:17:41.147Z,21.50
2018-06-02T03:20:08.430Z,20.00
2018-06-02T03:22:34.960Z,19.70
2018-06-02T03:25:01.429Z,17.90
2018-06-02T03:27:27.890Z,18.40
2018-06-02T03:29:54.366Z,18.97
2018-06-02T03:32:20.838Z,19.17
2018-06-02T03:34:47.330Z,20.30
2018-06-02T03:37:13.903Z,22.63
2018-06-02T03:39:40.373Z,20.50
2018-06-02T03:42:07.594Z,18.77
2018-06-02T03:44:34.051Z,18.53
2018-06-02T03:47:01.267Z,16.20
2018-06-02T03:49:27.814Z,24.37
2018-06-02T03:51:54.300Z,26.77
2018-06-02T03:54:20.742Z,25.70
2018-06-02T03:56:47.226Z,24.67
2018-06-02T03:59:13.810Z,30.73
2018-06-02T04:01:40.282Z,27.90
2018-06-02T04:04:06.743Z,22.90
2018-06-02T04:06:34.090Z,25.33
2018-06-02T04:09:00.551Z,20.20
2018-06-02T04:11:27.039Z,21.03
2018-06-02T04:13:53.528Z,22.20
2018-06-02T04:16:20.124Z,19.33
2018-06-02T04:18:46.582Z,19.67
2018-06-02T04:21:13.109Z,17.70
2018-06-02T04:23:40.426Z,18.67
2018-06-02T04:26:06.903Z,17.40
2018-06-02T04:28:34.108Z,16.57
2018-06-02T04:31:00.633Z,19.27
2018-06-02T04:33:27.093Z,17.07
2018-06-02T04:35:53.610Z,16.90
2018-06-02T04:38:20.090Z,14.20
2018-06-02T04:40:47.286Z,17.20
2018-06-02T04:43:13.821Z,15.90
2018-06-02T04:45:40.291Z,19.67
2018-06-02T04:48:06.795Z,22.67
2018-06-02T04:50:33.287Z,17.57
2018-06-02T04:52:59.876Z,15.93
2018-06-02T04:55:26.350Z,16.10
2018-06-02T04:57:53.598Z,14.90
2018-06-02T05:00:20.778Z,15.90
2018-06-02T05:02:47.272Z,16.40
2018-06-02T05:05:14.575Z,13.80
2018-06-02T05:07:41.099Z,13.67
2018-06-02T05:10:07.534Z,12.03
2018-06-02T05:12:34.067Z,9.80
2018-06-02T05:15:00.642Z,11.53
2018-06-02T05:17:27.089Z,12.00
2018-06-02T05:19:53.595Z,10.30
2018-06-02T05:22:20.038Z,10.33
2018-06-02T05:24:46.658Z,9.80
2018-06-02T05:27:13.078Z,9.80
2018-06-02T05:29:39.574Z,9.83
2018-06-02T05:32:06.929Z,9.87
2018-06-02T05:34:34.139Z,8.93
2018-06-02T05:37:00.603Z,8.77
2018-06-02T05:39:27.097Z,8.23
2018-06-02T05:41:53.605Z,8.50
2018-06-02T05:44:20.161Z,9.00
2018-06-02T05:46:46.663Z,8.00
2018-06-02T05:49:13.235Z,9.97
2018-06-02T05:51:39.774Z,8.70
2018-06-02T05:54:06.275Z,10.00
2018-06-02T05:56:34.463Z,9.30
2018-06-02T05:59:00.918Z,10.70
2018-06-02T06:01:27.508Z,9.63
2018-06-02T06:03:54.700Z,9.83
2018-06-02T06:06:21.378Z,10.90
2018-06-02T06:08:47.830Z,11.87
2018-06-02T06:11:15.058Z,11.00
2018-06-02T06:13:41.662Z,12.20
2018-06-02T06:16:08.173Z,10.97
2018-06-02T06:18:34.894Z,11.93
2018-06-02T06:21:02.172Z,11.30
2018-06-02T06:23:28.655Z,11.13
2018-06-02T06:25:55.143Z,10.53
2018-06-02T06:28:21.641Z,10.73
2018-06-02T06:30:48.845Z,12.37
2018-06-02T06:33:15.391Z,12.10
2018-06-02T06:35:41.874Z,12.53
2018-06-02T06:38:09.104Z,11.53
2018-06-02T06:40:35.582Z,10.90
2018-06-02T06:43:02.104Z,11.90
2018-06-02T06:45:28.608Z,12.20
2018-06-02T06:47:55.970Z,11.67
2018-06-02T06:50:23.178Z,10.77
2018-06-02T06:52:49.623Z,9.43
2018-06-02T06:55:16.094Z,10.80
2018-06-02T06:57:43.410Z,10.07
2018-06-02T07:00:09.834Z,9.10
2018-06-02T07:02:36.368Z,9.10
2018-06-02T07:05:02.841Z,9.07
2018-06-02T07:07:30.039Z,8.90
2018-06-02T07:09:56.542Z,9.53
2018-06-02T07:12:22.996Z,9.57
2018-06-02T07:14:49.614Z,8.37
2018-06-02T07:17:16.051Z,8.77
2018-06-02T07:19:42.619Z,8.67
2018-06-02T07:22:09.135Z,7.93
2018-06-02T07:24:35.635Z,8.90
2018-06-02T07:27:02.891Z,8.80
2018-06-02T07:29:29.395Z,8.70
2018-06-02T07:31:55.894Z,8.20
2018-06-02T07:34:22.348Z,9.33
2018-06-02T07:36:49.530Z,7.20
2018-06-02T07:39:16.053Z,6.93
2018-06-02T07:41:42.585Z,6.73
2018-06-02T07:44:09.044Z,6.80
2018-06-02T07:46:36.455Z,7.50
2018-06-02T07:49:02.947Z,6.63
2018-06-02T07:51:30.236Z,5.90
2018-06-02T07:53:56.720Z,5.20
2018-06-02T07:56:24.016Z,6.00
2018-06-02T07:58:50.482Z,5.47
2018-06-02T08:01:17.117Z,5.80
2018-06-02T08:03:43.602Z,6.10
2018-06-02T08:06:10.228Z,5.83
2018-06-02T08:08:37.495Z,6.10
2018-06-02T08:11:03.946Z,4.90
2018-06-02T08:13:30.478Z,4.97
2018-06-02T08:15:56.927Z,4.90
2018-06-02T08:18:23.504Z,4.23
2018-06-02T08:20:50.716Z,4.10
2018-06-02T08:23:17.239Z,4.93
2018-06-02T08:25:43.875Z,4.90
2018-06-02T08:28:10.416Z,5.13
2018-06-02T08:30:36.874Z,5.07
2018-06-02T08:33:03.325Z,4.33
2018-06-02T08:35:29.824Z,5.00
2018-06-02T08:37:56.307Z,5.17
2018-06-02T08:40:23.520Z,5.10
2018-06-02T08:42:49.970Z,5.07
2018-06-02T08:45:16.542Z,4.80
2018-06-02T08:47:43.090Z,5.70
2018-06-02T08:50:09.599Z,4.83
2018-06-02T08:52:36.841Z,4.60
2018-06-02T08:55:04.126Z,4.43
2018-06-02T08:57:31.252Z,4.20
2018-06-02T08:59:57.853Z,4.37
2018-06-02T09:02:24.290Z,4.27
2018-06-02T09:04:50.874Z,4.63
2018-06-02T09:07:17.346Z,4.73
2018-06-02T09:09:43.848Z,4.50
2018-06-02T09:12:10.310Z,4.70
2018-06-02T09:14:36.809Z,4.33
2018-06-02T09:17:03.292Z,4.30
2018-06-02T09:19:29.777Z,4.93
2018-06-02T09:21:56.295Z,3.37
2018-06-02T09:24:23.543Z,3.97
2018-06-02T09:26:50.766Z,4.37
2018-06-02T09:29:18.154Z,4.47
2018-06-02T09:31:44.721Z,4.40
2018-06-02T09:34:11.150Z,3.77
2018-06-02T09:36:37.794Z,3.83
2018-06-02T09:39:04.250Z,3.80
2018-06-02T09:41:30.868Z,3.77
2018-06-02T09:43:57.317Z,4.03
2018-06-02T09:46:23.847Z,4.17
2018-06-02T09:48:50.270Z,4.13
2018-06-02T09:51:16.722Z,4.17
2018-06-02T09:53:43.223Z,4.13
2018-06-02T09:56:09.732Z,4.47
2018-06-02T09:58:37.042Z,2.90
2018-06-02T10:01:03.557Z,3.20
2018-06-02T10:03:30.142Z,3.20
2018-06-02T10:05:56.682Z,3.50
2018-06-02T10:08:23.173Z,3.53
2018-06-02T10:10:49.592Z,3.00
2018-06-02T10:13:16.075Z,3.43
2018-06-02T10:15:42.556Z,3.07
2018-06-02T10:18:09.089Z,3.33
2018-06-02T10:20:35.538Z,4.30
2018-06-02T10:23:02.053Z,3.50
2018-06-02T10:25:28.677Z,2.80
2018-06-02T10:27:55.938Z,2.67
2018-06-02T10:30:22.447Z,2.93
2018-06-02T10:32:49.070Z,2.60
2018-06-02T10:35:15.576Z,2.83
2018-06-02T10:37:42.130Z,2.40
2018-06-02T10:40:08.645Z,3.07
2018-06-02T10:42:35.161Z,2.60
2018-06-02T10:45:01.642Z,3.00
2018-06-02T10:47:28.221Z,2.30
2018-06-02T10:49:54.722Z,2.90
2018-06-02T10:52:21.319Z,3.73
2018-06-02T10:54:47.867Z,3.20
2018-06-02T10:57:21.451Z,2.90
2018-06-02T10:59:48.063Z,3.30
2018-06-02T11:02:14.694Z,3.43
2018-06-02T11:04:41.279Z,2.53
2018-06-02T11:07:07.817Z,2.43
2018-06-02T11:09:34.274Z,2.70
2018-06-02T11:12:00.849Z,2.10
2018-06-02T11:14:27.335Z,2.50
2018-06-02T11:16:53.826Z,3.20
2018-06-02T11:19:20.341Z,2.10
2018-06-02T11:21:46.830Z,2.43
2018-06-02T11:24:13.350Z,2.17
2018-06-02T11:26:39.925Z,2.97
2018-06-02T11:29:07.143Z,2.60
2018-06-02T11:31:33.856Z,2.70
2018-06-02T11:34:00.367Z,2.83
2018-06-02T11:36:27.639Z,2.90
2018-06-02T11:38:54.234Z,2.67
2018-06-02T11:41:20.786Z,2.83
2018-06-02T11:43:48.033Z,3.20
2018-06-02T11:46:15.422Z,2.30
2018-06-02T11:48:41.998Z,2.60
2018-06-02T11:51:08.511Z,2.70
2018-06-02T11:53:35.110Z,2.23
2018-06-02T11:56:02.399Z,2.50
2018-06-02T11:58:28.893Z,3.03
2018-06-02T12:00:56.073Z,2.30
2018-06-02T12:03:22.618Z,1.90
2018-06-02T12:05:49.183Z,2.37
2018-06-02T12:08:15.750Z,2.10
2018-06-02T12:10:43.029Z,2.33
2018-06-02T12:13:09.671Z,2.80
2018-06-02T12:15:36.241Z,3.37
2018-06-02T12:18:02.735Z,2.73
2018-06-02T12:20:29.239Z,2.40
2018-06-02T12:22:56.662Z,2.60
2018-06-02T12:25:23.123Z,2.57
2018-06-02T12:27:50.339Z,3.33
2018-06-02T12:30:16.923Z,2.33
2018-06-02T12:32:44.192Z,2.27
2018-06-02T12:35:10.684Z,2.43
2018-06-02T12:37:37.206Z,3.10
2018-06-02T12:40:03.694Z,2.57
2018-06-02T12:42:30.287Z,2.30
2018-06-02T12:44:56.753Z,2.23
2018-06-02T12:47:23.271Z,2.43
2018-06-02T12:49:50.587Z,2.53
2018-06-02T12:52:17.052Z,2.10
2018-06-02T12:54:43.718Z,4.27
2018-06-02T12:57:10.180Z,2.73
2018-06-02T12:59:36.682Z,3.13
2018-06-02T13:02:03.170Z,9.10
2018-06-02T13:04:29.666Z,3.80
2018-06-02T13:06:56.178Z,4.40
2018-06-02T13:09:23.376Z,2.67
2018-06-02T13:11:49.898Z,2.07
2018-06-02T13:14:16.469Z,2.43
2018-06-02T13:16:42.961Z,2.73
2018-06-02T13:19:09.706Z,2.40
2018-06-02T13:21:36.192Z,2.40
2018-06-02T13:24:03.362Z,2.90
2018-06-02T13:26:30.654Z,1.97
2018-06-02T13:28:57.210Z,2.47
2018-06-02T13:31:23.674Z,2.60
2018-06-02T13:33:50.869Z,1.90
2018-06-02T13:36:17.329Z,2.90
2018-06-02T13:38:43.795Z,2.20
2018-06-02T13:41:11.118Z,3.00
2018-06-02T13:43:37.551Z,2.47
2018-06-02T13:46:04.983Z,2.63
2018-06-02T13:48:32.181Z,2.17
2018-06-02T13:50:59.445Z,2.57
2018-06-02T13:53:26.699Z,3.53
2018-06-02T13:55:53.949Z,2.23
2018-06-02T13:58:21.178Z,2.07
2018-06-02T14:00:47.714Z,2.23
2018-06-02T14:03:14.189Z,2.30
2018-06-02T14:05:40.663Z,2.43
2018-06-02T14:08:07.244Z,2.53
2018-06-02T14:10:33.691Z,2.20
2018-06-02T14:13:00.242Z,1.90
2018-06-02T14:15:26.759Z,2.20
2018-06-02T14:17:53.193Z,2.30
2018-06-02T14:20:19.726Z,2.00
2018-06-02T14:22:46.398Z,1.83
2018-06-02T14:25:13.767Z,5.60
2018-06-02T14:27:40.271Z,2.40
2018-06-02T14:30:06.793Z,2.90
2018-06-02T14:32:33.272Z,2.37
2018-06-02T14:34:59.763Z,2.40
2018-06-02T14:37:26.221Z,2.23
2018-06-02T14:39:52.733Z,2.17
2018-06-02T14:42:19.174Z,2.60
2018-06-02T14:44:45.731Z,2.03
2018-06-02T14:47:13.110Z,2.00
2018-06-02T14:49:39.647Z,1.97
2018-06-02T14:52:06.134Z,2.43
2018-06-02T14:54:32.781Z,2.70
2018-06-02T14:56:59.259Z,2.47
2018-06-02T14:59:26.502Z,2.23
2018-06-02T15:01:53.078Z,2.40
2018-06-02T15:04:19.608Z,3.30
2018-06-02T15:06:46.226Z,3.50
2018-06-02T15:09:13.458Z,3.10
2018-06-02T15:11:39.977Z,3.03
2018-06-02T15:14:06.545Z,3.43
2018-06-02T15:16:33.855Z,3.17
2018-06-02T15:19:01.229Z,3.40
2018-06-02T15:21:27.808Z,3.30
2018-06-02T15:23:54.282Z,3.30
2018-06-02T15:26:20.783Z,3.60
2018-06-02T15:28:47.253Z,4.00
2018-06-02T15:31:13.748Z,3.00
2018-06-02T15:33:40.302Z,3.27
2018-06-02T15:36:06.822Z,3.27
2018-06-02T15:38:33.398Z,3.33
2018-06-02T15:40:59.865Z,3.40
2018-06-02T15:43:27.122Z,3.90
2018-06-02T15:45:54.325Z,3.43
2018-06-02T15:48:20.869Z,3.83
2018-06-02T15:50:47.331Z,3.20
2018-06-02T15:53:13.928Z,3.70
2018-06-02T15:55:40.410Z,3.83
2018-06-02T15:58:07.634Z,3.80
2018-06-02T16:00:34.180Z,3.57
2018-06-02T16:03:00.657Z,4.00
2018-06-02T16:05:27.210Z,3.60
2018-06-02T16:07:53.683Z,3.50
2018-06-02T16:10:20.249Z,4.23
2018-06-02T16:12:47.461Z,4.03
2018-06-02T16:15:14.015Z,3.23
2018-06-02T16:17:40.475Z,3.10
2018-06-02T16:20:06.981Z,3.40
2018-06-02T16:22:33.427Z,3.40
2018-06-02T16:25:00.834Z,3.80
2018-06-02T16:27:27.294Z,3.47
2018-06-02T16:29:53.771Z,3.53
2018-06-02T16:32:20.266Z,3.80
2018-06-02T16:34:46.761Z,3.33
2018-06-02T16:37:13.326Z,3.53
2018-06-02T16:39:39.846Z,4.00
2018-06-02T16:42:07.057Z,4.60
2018-06-02T16:44:33.607Z,3.90
2018-06-02T16:47:00.110Z,3.20
2018-06-02T16:49:27.385Z,3.03
2018-06-02T16:51:53.913Z,3.47
2018-06-02T16:54:20.422Z,5.00
2018-06-02T16:56:47.680Z,3.57
2018-06-02T16:59:14.910Z,3.43
2018-06-02T17:01:41.411Z,4.67
2018-06-02T17:04:08.036Z,4.07
2018-06-02T17:06:34.516Z,3.37
2018-06-02T17:09:01.036Z,4.30
2018-06-02T17:11:27.508Z,4.03
2018-06-02T17:13:54.773Z,3.20
2018-06-02T17:16:21.221Z,3.60
2018-06-02T17:18:47.819Z,3.00
2018-06-02T17:21:14.378Z,3.40
2018-06-02T17:23:40.901Z,3.50
2018-06-02T17:26:08.153Z,4.17
2018-06-02T17:28:35.368Z,3.50
2018-06-02T17:31:01.948Z,4.10
2018-06-02T17:33:29.155Z,4.07
2018-06-02T17:35:55.626Z,4.30
2018-06-02T17:38:22.880Z,6.10
2018-06-02T17:40:50.084Z,4.70
2018-06-02T17:43:16.671Z,4.23
2018-06-02T17:45:43.159Z,3.90
2018-06-02T17:48:09.792Z,3.70
2018-06-02T17:50:36.334Z,5.00
2018-06-02T17:53:02.929Z,4.10
2018-06-02T17:55:29.399Z,3.90
2018-06-02T17:57:55.898Z,4.43
2018-06-02T18:00:22.429Z,4.00
2018-06-02T18:02:48.969Z,4.27
2018-06-02T18:05:15.507Z,4.47
2018-06-02T18:07:41.947Z,4.40
2018-06-02T18:10:08.487Z,4.87
2018-06-02T18:12:35.008Z,3.67
2018-06-02T18:15:01.568Z,3.70
2018-06-02T18:17:28.080Z,4.27
2018-06-02T18:19:54.605Z,4.27
2018-06-02T18:22:21.080Z,4.40
2018-06-02T18:24:47.555Z,4.93
2018-06-02T18:27:14.911Z,4.17
2018-06-02T18:29:42.259Z,4.53
2018-06-02T18:32:09.778Z,4.50
2018-06-02T18:34:36.356Z,4.87
2018-06-02T18:37:03.635Z,4.63
2018-06-02T18:39:30.832Z,4.73
2018-06-02T18:41:58.292Z,3.90
2018-06-02T18:44:24.789Z,4.73
2018-06-02T18:46:51.322Z,5.10
2018-06-02T18:49:17.816Z,4.70
2018-06-02T18:51:45.270Z,4.70
2018-06-02T18:54:12.631Z,5.13
2018-06-02T18:56:40.119Z,5.07
2018-06-02T18:59:06.635Z,4.63
2018-06-02T19:01:33.295Z,5.10
2018-06-02T19:03:59.951Z,5.10
2018-06-02T19:06:26.506Z,5.17
2018-06-02T19:08:53.112Z,5.20
2018-06-02T19:11:19.552Z,5.50
2018-06-02T19:13:46.182Z,4.67
2018-06-02T19:16:12.679Z,4.90
2018-06-02T19:18:40.055Z,8.23
2018-06-02T19:21:06.754Z,5.73
2018-06-02T19:23:33.291Z,5.73
2018-06-02T19:25:59.756Z,4.57
2018-06-02T19:28:26.418Z,5.63
2018-06-02T19:30:52.920Z,7.30
2018-06-02T19:33:20.206Z,5.60
2018-06-02T19:35:46.738Z,5.67
2018-06-02T19:38:13.229Z,6.00
2018-06-02T19:40:39.714Z,5.07
2018-06-02T19:43:06.211Z,4.77
2018-06-02T19:45:33.488Z,5.43
2018-06-02T19:48:00.002Z,5.80
2018-06-02T19:50:27.251Z,7.20
2018-06-02T19:52:54.457Z,6.07
2018-06-02T19:55:21.127Z,5.70
2018-06-02T19:57:48.361Z,5.00
2018-06-02T20:00:14.954Z,5.17
2018-06-02T20:02:41.677Z,6.27
2018-06-02T20:05:08.171Z,5.80
2018-06-02T20:07:34.666Z,6.03
2018-06-02T20:10:01.185Z,6.20
2018-06-02T20:12:27.701Z,5.40
2018-06-02T20:14:55.063Z,6.30
2018-06-02T20:17:21.519Z,6.40
2018-06-02T20:19:48.061Z,5.83
2018-06-02T20:22:14.640Z,6.20
2018-06-02T20:24:49.460Z,6.60
2018-06-02T20:27:26.515Z,6.73
2018-06-02T20:29:53.050Z,6.50
2018-06-02T20:32:19.548Z,6.27
2018-06-02T20:34:46.748Z,7.23
2018-06-02T20:37:13.257Z,7.67
2018-06-02T20:39:39.759Z,7.60
2018-06-02T20:42:07.028Z,7.90
2018-06-02T20:44:34.259Z,6.13
2018-06-02T20:47:01.632Z,6.30
2018-06-02T20:49:29.016Z,6.33
2018-06-02T20:51:55.521Z,7.20
2018-06-02T20:54:22.046Z,8.17
2018-06-02T20:56:49.244Z,6.33
2018-06-02T20:59:15.724Z,7.70
2018-06-02T21:01:42.966Z,8.97
2018-06-02T21:04:09.467Z,10.40
2018-06-02T21:06:35.981Z,13.20
2018-06-02T21:09:02.581Z,13.80
2018-06-02T21:11:29.878Z,20.03
2018-06-02T21:13:57.828Z,18.30
2018-06-02T21:16:24.284Z,26.03
2018-06-02T21:18:50.827Z,17.10
2018-06-02T21:21:17.309Z,20.80
2018-06-02T21:23:44.538Z,19.00
2018-06-02T21:26:11.132Z,9.67
2018-06-02T21:28:37.634Z,8.33
2018-06-02T21:31:04.850Z,9.77
2018-06-02T21:33:31.360Z,9.80
2018-06-02T21:35:57.880Z,11.10
2018-06-02T21:38:24.373Z,9.57
2018-06-02T21:40:51.689Z,12.27
2018-06-02T21:43:18.225Z,9.10
2018-06-02T21:45:44.729Z,9.80
2018-06-02T21:48:11.240Z,8.40
2018-06-02T21:50:38.454Z,9.23
2018-06-02T21:53:04.988Z,8.13
2018-06-02T21:55:31.494Z,8.00
2018-06-02T21:57:58.095Z,8.77
2018-06-02T22:00:24.632Z,9.50
2018-06-02T22:02:51.874Z,7.80
2018-06-02T22:05:18.385Z,9.07
2018-06-02T22:07:44.898Z,9.07
2018-06-02T22:10:11.398Z,9.60
2018-06-02T22:12:38.726Z,9.90
2018-06-02T22:15:05.210Z,10.13
2018-06-02T22:17:31.689Z,10.33
2018-06-02T22:19:58.205Z,11.37
2018-06-02T22:22:24.714Z,18.33
2018-06-02T22:24:51.212Z,20.63
2018-06-02T22:27:18.415Z,10.60
2018-06-02T22:29:44.953Z,10.80
2018-06-02T22:32:11.415Z,11.60
2018-06-02T22:34:37.925Z,9.67
2018-06-02T22:37:04.439Z,9.30
2018-06-02T22:39:31.251Z,9.47
2018-06-02T22:41:58.491Z,9.93
2018-06-02T22:44:25.698Z,9.50
2018-06-02T22:46:52.262Z,10.13
2018-06-02T22:49:18.837Z,9.70
2018-06-02T22:51:56.155Z,9.90
2018-06-02T22:54:22.609Z,8.27
2018-06-02T22:56:49.135Z,7.97
2018-06-02T22:59:15.585Z,9.37
2018-06-02T23:01:42.214Z,10.03
2018-06-02T23:04:08.654Z,10.13
2018-06-02T23:06:35.168Z,9.47
2018-06-02T23:09:01.634Z,8.77
2018-06-02T23:11:28.240Z,9.17
2018-06-02T23:13:54.753Z,9.27
2018-06-02T23:16:21.351Z,9.13
2018-06-02T23:18:48.665Z,8.70
2018-06-02T23:21:15.167Z,9.87
2018-06-02T23:23:41.781Z,10.00
2018-06-02T23:26:08.303Z,10.30
2018-06-02T23:28:34.814Z,9.87
2018-06-02T23:31:01.294Z,10.60
2018-06-02T23:33:28.523Z,10.73
2018-06-02T23:35:55.008Z,9.80
2018-06-02T23:38:21.495Z,9.10
2018-06-02T23:40:47.937Z,9.60
2018-06-02T23:43:15.279Z,9.07
2018-06-02T23:45:41.755Z,9.50
2018-06-02T23:48:08.247Z,10.90
2018-06-02T23:50:34.918Z,10.47
2018-06-02T23:53:01.350Z,10.10
2018-06-02T23:55:27.842Z,10.97
2018-06-02T23:57:54.314Z,9.67
